sensor_id;sensor_type;location;lat;lon;timestamp;temperature;humidity
59469;DHT22;45277;52.768;18.262;2023-04-06T00:00:28;-4.00;99.90
59469;DHT22;45277;52.768;18.262;2023-04-06T00:02:18;-4.10;99.90
59469;DHT22;45277;52.768;18.262;2023-04-06T00:03:50;-4.00;99.90
59469;DHT22;45277;52.768;18.262;2023-04-06T00:05:21;-4.00;99.90
59469;DHT22;45277;52.768;18.262;2023-04-06T00:06:53;-4.10;99.90
59469;DHT22;45277;52.768;18.262;2023-04-06T00:08:26;-4.10;99.90
59469;DHT22;45277;52.768;18.262;2023-04-06T00:09:57;-4.10;99.90
59469;DHT22;45277;52.768;18.262;2023-04-06T00:11:28;-4.10;99.90
59469;DHT22;45277;52.768;18.262;2023-04-06T00:13:00;-4.10;99.90
59469;DHT22;45277;52.768;18.262;2023-04-06T00:14:31;-4.20;99.90
59469;DHT22;45277;52.768;18.262;2023-04-06T00:16:03;-4.20;99.90
59469;DHT22;45277;52.768;18.262;2023-04-06T00:17:36;-4.20;99.90
59469;DHT22;45277;52.768;18.262;2023-04-06T00:19:07;-4.10;99.90
59469;DHT22;45277;52.768;18.262;2023-04-06T00:20:39;-4.10;99.90
59469;DHT22;45277;52.768;18.262;2023-04-06T00:22:10;-4.10;99.90
59469;DHT22;45277;52.768;18.262;2023-04-06T00:23:42;-4.10;99.90
59469;DHT22;45277;52.768;18.262;2023-04-06T00:25:13;-4.10;99.90
59469;DHT22;45277;52.768;18.262;2023-04-06T00:26:46;-4.20;99.90
59469;DHT22;45277;52.768;18.262;2023-04-06T00:28:17;-4.20;99.90
59469;DHT22;45277;52.768;18.262;2023-04-06T00:29:52;-4.20;99.90
59469;DHT22;45277;52.768;18.262;2023-04-06T00:31:24;-4.20;99.90
59469;DHT22;45277;52.768;18.262;2023-04-06T00:32:55;-4.30;99.90
59469;DHT22;45277;52.768;18.262;2023-04-06T00:34:26;-4.30;99.90
59469;DHT22;45277;52.768;18.262;2023-04-06T00:35:58;-4.30;99.90
59469;DHT22;45277;52.768;18.262;2023-04-06T00:37:30;-4.30;99.90
59469;DHT22;45277;52.768;18.262;2023-04-06T00:39:01;-4.40;99.90
59469;DHT22;45277;52.768;18.262;2023-04-06T00:40:33;-4.40;99.90
59469;DHT22;45277;52.768;18.262;2023-04-06T00:42:12;-4.40;99.90
59469;DHT22;45277;52.768;18.262;2023-04-06T00:43:46;-4.40;99.90
59469;DHT22;45277;52.768;18.262;2023-04-06T00:45:18;-4.40;99.90
59469;DHT22;45277;52.768;18.262;2023-04-06T00:46:49;-4.40;99.90
59469;DHT22;45277;52.768;18.262;2023-04-06T00:48:21;-4.40;99.90
59469;DHT22;45277;52.768;18.262;2023-04-06T00:49:55;-4.50;99.90
59469;DHT22;45277;52.768;18.262;2023-04-06T00:51:27;-4.50;99.90
59469;DHT22;45277;52.768;18.262;2023-04-06T00:52:59;-4.60;99.90
59469;DHT22;45277;52.768;18.262;2023-04-06T00:54:31;-4.60;99.90
59469;DHT22;45277;52.768;18.262;2023-04-06T00:56:02;-4.60;99.90
59469;DHT22;45277;52.768;18.262;2023-04-06T00:57:33;-4.60;99.90
59469;DHT22;45277;52.768;18.262;2023-04-06T00:59:05;-4.60;99.90
59469;DHT22;45277;52.768;18.262;2023-04-06T01:00:37;-4.50;99.90
59469;DHT22;45277;52.768;18.262;2023-04-06T01:02:08;-4.50;99.90
59469;DHT22;45277;52.768;18.262;2023-04-06T01:03:40;-4.50;99.90
59469;DHT22;45277;52.768;18.262;2023-04-06T01:05:13;-4.40;99.90
59469;DHT22;45277;52.768;18.262;2023-04-06T01:06:44;-4.40;99.90
59469;DHT22;45277;52.768;18.262;2023-04-06T01:08:16;-4.30;99.90
59469;DHT22;45277;52.768;18.262;2023-04-06T01:09:48;-4.30;99.90
59469;DHT22;45277;52.768;18.262;2023-04-06T01:11:19;-4.30;99.90
59469;DHT22;45277;52.768;18.262;2023-04-06T01:12:51;-4.30;99.90
59469;DHT22;45277;52.768;18.262;2023-04-06T01:14:23;-4.30;99.90
59469;DHT22;45277;52.768;18.262;2023-04-06T01:15:54;-4.30;99.90
59469;DHT22;45277;52.768;18.262;2023-04-06T01:17:26;-4.20;99.90
59469;DHT22;45277;52.768;18.262;2023-04-06T01:18:59;-4.20;99.90
59469;DHT22;45277;52.768;18.262;2023-04-06T01:20:30;-4.20;99.90
59469;DHT22;45277;52.768;18.262;2023-04-06T01:22:02;-4.20;99.90
59469;DHT22;45277;52.768;18.262;2023-04-06T01:23:34;-4.20;99.90
59469;DHT22;45277;52.768;18.262;2023-04-06T01:25:06;-4.10;99.90
59469;DHT22;45277;52.768;18.262;2023-04-06T01:26:38;-4.10;99.90
59469;DHT22;45277;52.768;18.262;2023-04-06T01:28:09;-4.10;99.90
59469;DHT22;45277;52.768;18.262;2023-04-06T01:29:40;-4.10;99.90
59469;DHT22;45277;52.768;18.262;2023-04-06T01:31:12;-4.10;99.90
59469;DHT22;45277;52.768;18.262;2023-04-06T01:32:44;-4.10;99.90
59469;DHT22;45277;52.768;18.262;2023-04-06T01:34:15;-4.10;99.90
59469;DHT22;45277;52.768;18.262;2023-04-06T01:35:47;-4.20;99.90
59469;DHT22;45277;52.768;18.262;2023-04-06T01:37:18;-4.20;99.90
59469;DHT22;45277;52.768;18.262;2023-04-06T01:38:50;-4.20;99.90
59469;DHT22;45277;52.768;18.262;2023-04-06T01:40:22;-4.20;99.90
59469;DHT22;45277;52.768;18.262;2023-04-06T01:41:53;-4.30;99.90
59469;DHT22;45277;52.768;18.262;2023-04-06T01:43:24;-4.30;99.90
59469;DHT22;45277;52.768;18.262;2023-04-06T01:44:56;-4.30;99.90
59469;DHT22;45277;52.768;18.262;2023-04-06T01:46:27;-4.20;99.90
59469;DHT22;45277;52.768;18.262;2023-04-06T01:47:59;-4.20;99.90
59469;DHT22;45277;52.768;18.262;2023-04-06T01:49:31;-4.20;99.90
59469;DHT22;45277;52.768;18.262;2023-04-06T01:51:02;-4.20;99.90
59469;DHT22;45277;52.768;18.262;2023-04-06T01:52:33;-4.20;99.90
59469;DHT22;45277;52.768;18.262;2023-04-06T01:54:05;-4.20;99.90
59469;DHT22;45277;52.768;18.262;2023-04-06T01:55:36;-4.30;99.90
59469;DHT22;45277;52.768;18.262;2023-04-06T01:57:07;-4.30;99.90
59469;DHT22;45277;52.768;18.262;2023-04-06T01:58:39;-4.30;99.90
59469;DHT22;45277;52.768;18.262;2023-04-06T02:00:11;-4.30;99.90
59469;DHT22;45277;52.768;18.262;2023-04-06T02:01:42;-4.30;99.90
59469;DHT22;45277;52.768;18.262;2023-04-06T02:03:14;-4.40;99.90
59469;DHT22;45277;52.768;18.262;2023-04-06T02:04:45;-4.40;99.90
59469;DHT22;45277;52.768;18.262;2023-04-06T02:06:16;-4.40;99.90
59469;DHT22;45277;52.768;18.262;2023-04-06T02:07:48;-4.40;99.90
59469;DHT22;45277;52.768;18.262;2023-04-06T02:09:20;-4.30;99.90
59469;DHT22;45277;52.768;18.262;2023-04-06T02:10:51;-4.30;99.90
59469;DHT22;45277;52.768;18.262;2023-04-06T02:12:23;-4.30;99.90
59469;DHT22;45277;52.768;18.262;2023-04-06T02:13:55;-4.30;99.90
59469;DHT22;45277;52.768;18.262;2023-04-06T02:15:27;-4.30;99.90
59469;DHT22;45277;52.768;18.262;2023-04-06T02:16:58;-4.20;99.90
59469;DHT22;45277;52.768;18.262;2023-04-06T02:18:31;-4.20;99.90
59469;DHT22;45277;52.768;18.262;2023-04-06T02:20:02;-4.20;99.90
59469;DHT22;45277;52.768;18.262;2023-04-06T02:21:34;-4.20;99.90
59469;DHT22;45277;52.768;18.262;2023-04-06T02:23:05;-4.30;99.90
59469;DHT22;45277;52.768;18.262;2023-04-06T02:24:36;-4.20;99.90
59469;DHT22;45277;52.768;18.262;2023-04-06T02:26:08;-4.20;99.90
59469;DHT22;45277;52.768;18.262;2023-04-06T02:27:39;-4.20;99.90
59469;DHT22;45277;52.768;18.262;2023-04-06T02:29:10;-4.20;99.90
59469;DHT22;45277;52.768;18.262;2023-04-06T02:30:42;-4.30;99.90
59469;DHT22;45277;52.768;18.262;2023-04-06T02:32:13;-4.20;99.90
59469;DHT22;45277;52.768;18.262;2023-04-06T02:33:44;-4.20;99.90
59469;DHT22;45277;52.768;18.262;2023-04-06T02:35:16;-4.20;99.90
59469;DHT22;45277;52.768;18.262;2023-04-06T02:36:47;-4.10;99.90
59469;DHT22;45277;52.768;18.262;2023-04-06T02:38:19;-4.10;99.90
59469;DHT22;45277;52.768;18.262;2023-04-06T02:39:50;-4.00;99.90
59469;DHT22;45277;52.768;18.262;2023-04-06T02:41:22;-3.90;99.90
59469;DHT22;45277;52.768;18.262;2023-04-06T02:42:53;-3.80;99.90
59469;DHT22;45277;52.768;18.262;2023-04-06T02:44:24;-3.80;99.90
59469;DHT22;45277;52.768;18.262;2023-04-06T02:45:56;-3.70;99.90
59469;DHT22;45277;52.768;18.262;2023-04-06T02:47:27;-3.60;99.90
59469;DHT22;45277;52.768;18.262;2023-04-06T02:48:58;-3.60;99.90
59469;DHT22;45277;52.768;18.262;2023-04-06T02:50:31;-3.50;99.90
59469;DHT22;45277;52.768;18.262;2023-04-06T02:52:02;-3.50;99.90
59469;DHT22;45277;52.768;18.262;2023-04-06T02:53:34;-3.40;99.90
59469;DHT22;45277;52.768;18.262;2023-04-06T02:55:06;-3.30;99.90
59469;DHT22;45277;52.768;18.262;2023-04-06T02:56:38;-3.30;99.90
59469;DHT22;45277;52.768;18.262;2023-04-06T02:58:10;-3.30;99.90
59469;DHT22;45277;52.768;18.262;2023-04-06T02:59:41;-3.20;99.90
59469;DHT22;45277;52.768;18.262;2023-04-06T03:01:13;-3.20;99.90
59469;DHT22;45277;52.768;18.262;2023-04-06T03:02:44;-3.10;99.90
59469;DHT22;45277;52.768;18.262;2023-04-06T03:04:16;-3.00;99.90
59469;DHT22;45277;52.768;18.262;2023-04-06T03:05:47;-3.00;99.90
59469;DHT22;45277;52.768;18.262;2023-04-06T03:07:18;-2.90;99.90
59469;DHT22;45277;52.768;18.262;2023-04-06T03:08:50;-2.90;99.90
59469;DHT22;45277;52.768;18.262;2023-04-06T03:10:21;-2.90;99.90
59469;DHT22;45277;52.768;18.262;2023-04-06T03:11:53;-2.80;99.90
59469;DHT22;45277;52.768;18.262;2023-04-06T03:13:24;-2.80;99.90
59469;DHT22;45277;52.768;18.262;2023-04-06T03:14:55;-2.80;99.90
59469;DHT22;45277;52.768;18.262;2023-04-06T03:16:27;-2.80;99.90
59469;DHT22;45277;52.768;18.262;2023-04-06T03:17:58;-2.70;99.90
59469;DHT22;45277;52.768;18.262;2023-04-06T03:19:29;-2.70;99.90
59469;DHT22;45277;52.768;18.262;2023-04-06T03:21:01;-2.70;99.90
59469;DHT22;45277;52.768;18.262;2023-04-06T03:22:32;-2.70;99.90
59469;DHT22;45277;52.768;18.262;2023-04-06T03:24:04;-2.60;99.90
59469;DHT22;45277;52.768;18.262;2023-04-06T03:25:36;-2.60;99.90
59469;DHT22;45277;52.768;18.262;2023-04-06T03:27:07;-2.60;99.90
59469;DHT22;45277;52.768;18.262;2023-04-06T03:28:39;-2.60;99.90
59469;DHT22;45277;52.768;18.262;2023-04-06T03:30:11;-2.50;99.90
59469;DHT22;45277;52.768;18.262;2023-04-06T03:31:42;-2.50;99.90
59469;DHT22;45277;52.768;18.262;2023-04-06T03:33:13;-2.40;99.90
59469;DHT22;45277;52.768;18.262;2023-04-06T03:34:45;-2.40;99.90
59469;DHT22;45277;52.768;18.262;2023-04-06T03:36:16;-2.40;99.90
59469;DHT22;45277;52.768;18.262;2023-04-06T03:37:47;-2.30;99.90
59469;DHT22;45277;52.768;18.262;2023-04-06T03:39:19;-2.30;99.90
59469;DHT22;45277;52.768;18.262;2023-04-06T03:40:50;-2.30;99.90
59469;DHT22;45277;52.768;18.262;2023-04-06T03:42:22;-2.20;99.90
59469;DHT22;45277;52.768;18.262;2023-04-06T03:43:53;-2.20;99.90
59469;DHT22;45277;52.768;18.262;2023-04-06T03:45:25;-2.20;99.90
59469;DHT22;45277;52.768;18.262;2023-04-06T03:46:56;-2.20;99.90
59469;DHT22;45277;52.768;18.262;2023-04-06T03:48:28;-2.10;99.90
59469;DHT22;45277;52.768;18.262;2023-04-06T03:49:59;-2.10;99.90
59469;DHT22;45277;52.768;18.262;2023-04-06T03:51:30;-2.10;99.90
59469;DHT22;45277;52.768;18.262;2023-04-06T03:53:02;-2.10;99.90
59469;DHT22;45277;52.768;18.262;2023-04-06T03:54:33;-2.00;99.90
59469;DHT22;45277;52.768;18.262;2023-04-06T03:56:05;-2.00;99.90
59469;DHT22;45277;52.768;18.262;2023-04-06T03:57:37;-1.90;99.90
59469;DHT22;45277;52.768;18.262;2023-04-06T03:59:08;-1.90;99.90
59469;DHT22;45277;52.768;18.262;2023-04-06T04:00:39;-1.90;99.90
59469;DHT22;45277;52.768;18.262;2023-04-06T04:02:11;-1.90;99.90
59469;DHT22;45277;52.768;18.262;2023-04-06T04:03:42;-1.90;99.90
59469;DHT22;45277;52.768;18.262;2023-04-06T04:05:13;-1.90;99.90
59469;DHT22;45277;52.768;18.262;2023-04-06T04:06:45;-1.90;99.90
59469;DHT22;45277;52.768;18.262;2023-04-06T04:08:16;-1.90;99.90
59469;DHT22;45277;52.768;18.262;2023-04-06T04:09:48;-1.90;99.90
59469;DHT22;45277;52.768;18.262;2023-04-06T04:11:19;-1.90;99.90
59469;DHT22;45277;52.768;18.262;2023-04-06T04:12:51;-1.90;99.90
59469;DHT22;45277;52.768;18.262;2023-04-06T04:14:22;-1.80;99.90
59469;DHT22;45277;52.768;18.262;2023-04-06T04:15:54;-1.90;99.90
59469;DHT22;45277;52.768;18.262;2023-04-06T04:17:25;-1.80;99.90
59469;DHT22;45277;52.768;18.262;2023-04-06T04:18:56;-1.80;99.90
59469;DHT22;45277;52.768;18.262;2023-04-06T04:20:30;-1.80;99.90
59469;DHT22;45277;52.768;18.262;2023-04-06T04:22:01;-1.70;99.90
59469;DHT22;45277;52.768;18.262;2023-04-06T04:23:35;-1.70;99.90
59469;DHT22;45277;52.768;18.262;2023-04-06T04:25:07;-1.60;99.90
59469;DHT22;45277;52.768;18.262;2023-04-06T04:26:39;-1.60;99.90
59469;DHT22;45277;52.768;18.262;2023-04-06T04:28:11;-1.60;99.90
59469;DHT22;45277;52.768;18.262;2023-04-06T04:29:42;-1.50;99.90
59469;DHT22;45277;52.768;18.262;2023-04-06T04:31:14;-1.50;99.90
59469;DHT22;45277;52.768;18.262;2023-04-06T04:32:48;-1.40;99.90
59469;DHT22;45277;52.768;18.262;2023-04-06T04:34:20;-1.40;99.90
59469;DHT22;45277;52.768;18.262;2023-04-06T04:35:52;-1.40;99.90
59469;DHT22;45277;52.768;18.262;2023-04-06T04:37:23;-1.40;99.90
59469;DHT22;45277;52.768;18.262;2023-04-06T04:38:55;-1.30;99.90
59469;DHT22;45277;52.768;18.262;2023-04-06T04:40:26;-1.30;99.90
59469;DHT22;45277;52.768;18.262;2023-04-06T04:41:57;-1.30;99.90
59469;DHT22;45277;52.768;18.262;2023-04-06T04:43:29;-1.30;99.90
59469;DHT22;45277;52.768;18.262;2023-04-06T04:45:00;-1.20;99.90
59469;DHT22;45277;52.768;18.262;2023-04-06T04:46:32;-1.20;99.90
59469;DHT22;45277;52.768;18.262;2023-04-06T04:48:03;-1.20;99.90
59469;DHT22;45277;52.768;18.262;2023-04-06T04:49:35;-1.20;99.90
59469;DHT22;45277;52.768;18.262;2023-04-06T04:51:07;-1.10;99.90
59469;DHT22;45277;52.768;18.262;2023-04-06T04:52:38;-1.10;99.90
59469;DHT22;45277;52.768;18.262;2023-04-06T04:54:10;-1.10;99.90
59469;DHT22;45277;52.768;18.262;2023-04-06T04:55:41;-1.00;99.90
59469;DHT22;45277;52.768;18.262;2023-04-06T04:57:13;-0.90;99.90
59469;DHT22;45277;52.768;18.262;2023-04-06T04:58:44;-0.90;99.90
59469;DHT22;45277;52.768;18.262;2023-04-06T05:00:16;-0.80;99.90
59469;DHT22;45277;52.768;18.262;2023-04-06T05:01:48;-0.80;99.90
59469;DHT22;45277;52.768;18.262;2023-04-06T05:03:23;-0.70;99.90
59469;DHT22;45277;52.768;18.262;2023-04-06T05:04:55;-0.70;99.90
59469;DHT22;45277;52.768;18.262;2023-04-06T05:06:27;-0.50;99.90
59469;DHT22;45277;52.768;18.262;2023-04-06T05:07:58;-0.30;99.90
59469;DHT22;45277;52.768;18.262;2023-04-06T05:09:31;-0.20;99.90
59469;DHT22;45277;52.768;18.262;2023-04-06T05:11:03;-0.10;99.90
59469;DHT22;45277;52.768;18.262;2023-04-06T05:12:35;-0.10;99.90
59469;DHT22;45277;52.768;18.262;2023-04-06T05:14:07;0.00;99.90
59469;DHT22;45277;52.768;18.262;2023-04-06T05:15:39;0.00;99.90
59469;DHT22;45277;52.768;18.262;2023-04-06T05:17:11;0.00;99.90
59469;DHT22;45277;52.768;18.262;2023-04-06T05:18:42;0.10;99.90
59469;DHT22;45277;52.768;18.262;2023-04-06T05:20:14;0.10;99.90
59469;DHT22;45277;52.768;18.262;2023-04-06T05:21:46;0.20;99.90
59469;DHT22;45277;52.768;18.262;2023-04-06T05:23:17;0.30;99.90
59469;DHT22;45277;52.768;18.262;2023-04-06T05:24:49;0.30;99.90
59469;DHT22;45277;52.768;18.262;2023-04-06T05:26:20;0.40;99.90
59469;DHT22;45277;52.768;18.262;2023-04-06T05:27:52;0.50;99.90
59469;DHT22;45277;52.768;18.262;2023-04-06T05:29:24;0.50;99.90
59469;DHT22;45277;52.768;18.262;2023-04-06T05:30:55;0.60;99.90
59469;DHT22;45277;52.768;18.262;2023-04-06T05:32:28;0.70;99.90
59469;DHT22;45277;52.768;18.262;2023-04-06T05:33:59;0.70;99.90
59469;DHT22;45277;52.768;18.262;2023-04-06T05:35:31;1.00;99.90
59469;DHT22;45277;52.768;18.262;2023-04-06T05:37:02;1.20;99.90
59469;DHT22;45277;52.768;18.262;2023-04-06T05:38:34;1.20;99.90
59469;DHT22;45277;52.768;18.262;2023-04-06T05:40:06;1.20;99.90
59469;DHT22;45277;52.768;18.262;2023-04-06T05:41:37;1.20;99.90
59469;DHT22;45277;52.768;18.262;2023-04-06T05:43:09;1.40;99.90
59469;DHT22;45277;52.768;18.262;2023-04-06T05:44:41;1.40;99.90
59469;DHT22;45277;52.768;18.262;2023-04-06T05:46:12;1.40;99.90
59469;DHT22;45277;52.768;18.262;2023-04-06T05:47:44;1.40;99.90
59469;DHT22;45277;52.768;18.262;2023-04-06T05:49:16;1.50;99.90
59469;DHT22;45277;52.768;18.262;2023-04-06T05:50:50;1.60;99.90
59469;DHT22;45277;52.768;18.262;2023-04-06T05:52:22;1.80;99.90
59469;DHT22;45277;52.768;18.262;2023-04-06T05:53:53;1.90;99.20
59469;DHT22;45277;52.768;18.262;2023-04-06T05:55:24;2.00;97.00
59469;DHT22;45277;52.768;18.262;2023-04-06T05:56:56;2.10;93.90
59469;DHT22;45277;52.768;18.262;2023-04-06T05:58:28;2.20;92.10
59469;DHT22;45277;52.768;18.262;2023-04-06T05:59:59;2.30;90.90
59469;DHT22;45277;52.768;18.262;2023-04-06T06:01:33;2.30;90.00
59469;DHT22;45277;52.768;18.262;2023-04-06T06:03:05;2.40;86.70
59469;DHT22;45277;52.768;18.262;2023-04-06T06:04:37;2.40;87.20
59469;DHT22;45277;52.768;18.262;2023-04-06T06:06:08;2.50;83.30
59469;DHT22;45277;52.768;18.262;2023-04-06T06:07:40;2.40;91.90
59469;DHT22;45277;52.768;18.262;2023-04-06T06:09:11;2.40;95.80
59469;DHT22;45277;52.768;18.262;2023-04-06T06:10:43;2.40;99.80
59469;DHT22;45277;52.768;18.262;2023-04-06T06:12:14;2.30;99.90
59469;DHT22;45277;52.768;18.262;2023-04-06T06:13:46;2.40;99.70
59469;DHT22;45277;52.768;18.262;2023-04-06T06:15:18;2.40;97.00
59469;DHT22;45277;52.768;18.262;2023-04-06T06:16:49;2.50;98.80
59469;DHT22;45277;52.768;18.262;2023-04-06T06:18:20;2.60;93.80
59469;DHT22;45277;52.768;18.262;2023-04-06T06:19:52;2.70;90.30
59469;DHT22;45277;52.768;18.262;2023-04-06T06:21:24;2.80;83.10
59469;DHT22;45277;52.768;18.262;2023-04-06T06:22:55;2.90;84.40
59469;DHT22;45277;52.768;18.262;2023-04-06T06:24:27;3.00;75.20
59469;DHT22;45277;52.768;18.262;2023-04-06T06:25:59;3.10;75.80
59469;DHT22;45277;52.768;18.262;2023-04-06T06:27:32;3.20;75.00
59469;DHT22;45277;52.768;18.262;2023-04-06T06:29:03;3.20;72.90
59469;DHT22;45277;52.768;18.262;2023-04-06T06:30:36;3.20;78.20
59469;DHT22;45277;52.768;18.262;2023-04-06T06:32:07;3.30;71.30
59469;DHT22;45277;52.768;18.262;2023-04-06T06:33:42;3.40;60.50
59469;DHT22;45277;52.768;18.262;2023-04-06T06:35:13;3.50;60.10
59469;DHT22;45277;52.768;18.262;2023-04-06T06:36:45;3.80;56.00
59469;DHT22;45277;52.768;18.262;2023-04-06T06:38:17;3.90;43.50
59469;DHT22;45277;52.768;18.262;2023-04-06T06:39:48;4.10;41.30
59469;DHT22;45277;52.768;18.262;2023-04-06T06:41:20;3.90;54.70
59469;DHT22;45277;52.768;18.262;2023-04-06T06:42:52;4.00;65.50
59469;DHT22;45277;52.768;18.262;2023-04-06T06:44:23;4.00;65.90
59469;DHT22;45277;52.768;18.262;2023-04-06T06:45:54;4.20;52.60
59469;DHT22;45277;52.768;18.262;2023-04-06T06:47:26;4.30;24.30
59469;DHT22;45277;52.768;18.262;2023-04-06T06:48:58;4.40;19.40
59469;DHT22;45277;52.768;18.262;2023-04-06T06:50:30;4.40;19.40
59469;DHT22;45277;52.768;18.262;2023-04-06T06:52:02;4.60;22.20
59469;DHT22;45277;52.768;18.262;2023-04-06T06:53:35;4.70;21.10
59469;DHT22;45277;52.768;18.262;2023-04-06T06:55:07;4.80;9.20
59469;DHT22;45277;52.768;18.262;2023-04-06T06:56:39;4.90;11.20
59469;DHT22;45277;52.768;18.262;2023-04-06T06:58:11;4.80;5.10
59469;DHT22;45277;52.768;18.262;2023-04-06T06:59:43;4.90;6.50
59469;DHT22;45277;52.768;18.262;2023-04-06T07:01:14;4.80;4.40
59469;DHT22;45277;52.768;18.262;2023-04-06T07:02:47;4.90;3.40
59469;DHT22;45277;52.768;18.262;2023-04-06T07:04:19;4.90;2.20
59469;DHT22;45277;52.768;18.262;2023-04-06T07:05:51;4.90;3.90
59469;DHT22;45277;52.768;18.262;2023-04-06T07:07:26;4.80;1.90
59469;DHT22;45277;52.768;18.262;2023-04-06T07:08:57;4.70;1.00
59469;DHT22;45277;52.768;18.262;2023-04-06T07:10:29;4.80;1.30
59469;DHT22;45277;52.768;18.262;2023-04-06T07:12:00;4.80;4.50
59469;DHT22;45277;52.768;18.262;2023-04-06T07:13:33;4.80;2.70
59469;DHT22;45277;52.768;18.262;2023-04-06T07:15:05;4.80;1.00
59469;DHT22;45277;52.768;18.262;2023-04-06T07:16:36;4.80;2.50
59469;DHT22;45277;52.768;18.262;2023-04-06T07:18:08;4.80;2.60
59469;DHT22;45277;52.768;18.262;2023-04-06T07:19:39;4.90;1.00
59469;DHT22;45277;52.768;18.262;2023-04-06T07:21:11;5.00;1.50
59469;DHT22;45277;52.768;18.262;2023-04-06T07:22:43;5.10;1.80
59469;DHT22;45277;52.768;18.262;2023-04-06T07:24:18;5.20;1.00
59469;DHT22;45277;52.768;18.262;2023-04-06T07:25:49;5.30;2.60
59469;DHT22;45277;52.768;18.262;2023-04-06T07:27:22;5.30;5.40
59469;DHT22;45277;52.768;18.262;2023-04-06T07:28:53;5.50;1.00
59469;DHT22;45277;52.768;18.262;2023-04-06T07:30:24;5.70;1.00
59469;DHT22;45277;52.768;18.262;2023-04-06T07:31:58;5.80;1.00
59469;DHT22;45277;52.768;18.262;2023-04-06T07:33:30;5.50;3.10
59469;DHT22;45277;52.768;18.262;2023-04-06T07:35:03;5.70;1.00
59469;DHT22;45277;52.768;18.262;2023-04-06T07:36:34;5.50;1.00
59469;DHT22;45277;52.768;18.262;2023-04-06T07:38:06;5.70;1.00
59469;DHT22;45277;52.768;18.262;2023-04-06T07:39:37;5.90;1.00
59469;DHT22;45277;52.768;18.262;2023-04-06T07:41:08;6.00;1.00
59469;DHT22;45277;52.768;18.262;2023-04-06T07:42:40;5.70;1.00
59469;DHT22;45277;52.768;18.262;2023-04-06T07:44:12;5.60;1.00
59469;DHT22;45277;52.768;18.262;2023-04-06T07:45:43;5.80;1.00
59469;DHT22;45277;52.768;18.262;2023-04-06T07:47:16;5.70;1.00
59469;DHT22;45277;52.768;18.262;2023-04-06T07:48:47;6.00;1.00
59469;DHT22;45277;52.768;18.262;2023-04-06T07:50:19;6.00;1.00
59469;DHT22;45277;52.768;18.262;2023-04-06T07:51:51;5.90;1.00
59469;DHT22;45277;52.768;18.262;2023-04-06T07:53:22;5.90;1.00
59469;DHT22;45277;52.768;18.262;2023-04-06T07:54:55;5.80;1.00
59469;DHT22;45277;52.768;18.262;2023-04-06T07:56:26;5.70;1.00
59469;DHT22;45277;52.768;18.262;2023-04-06T07:57:57;6.00;1.00
59469;DHT22;45277;52.768;18.262;2023-04-06T07:59:29;6.00;1.00
59469;DHT22;45277;52.768;18.262;2023-04-06T08:01:01;5.70;1.00
59469;DHT22;45277;52.768;18.262;2023-04-06T08:02:32;6.00;1.00
59469;DHT22;45277;52.768;18.262;2023-04-06T08:04:04;6.00;1.00
59469;DHT22;45277;52.768;18.262;2023-04-06T08:05:36;5.90;1.00
59469;DHT22;45277;52.768;18.262;2023-04-06T08:07:07;5.70;1.00
59469;DHT22;45277;52.768;18.262;2023-04-06T08:08:38;5.80;1.00
59469;DHT22;45277;52.768;18.262;2023-04-06T08:10:10;5.50;1.00
59469;DHT22;45277;52.768;18.262;2023-04-06T08:11:42;5.50;1.00
59469;DHT22;45277;52.768;18.262;2023-04-06T08:13:13;5.70;1.00
59469;DHT22;45277;52.768;18.262;2023-04-06T08:14:45;5.70;1.00
59469;DHT22;45277;52.768;18.262;2023-04-06T08:16:16;5.60;1.00
59469;DHT22;45277;52.768;18.262;2023-04-06T08:17:48;5.60;1.00
59469;DHT22;45277;52.768;18.262;2023-04-06T08:19:20;5.50;1.00
59469;DHT22;45277;52.768;18.262;2023-04-06T08:20:51;5.40;1.00
59469;DHT22;45277;52.768;18.262;2023-04-06T08:22:22;5.50;1.00
59469;DHT22;45277;52.768;18.262;2023-04-06T08:23:54;5.50;1.00
59469;DHT22;45277;52.768;18.262;2023-04-06T08:25:25;5.70;1.00
59469;DHT22;45277;52.768;18.262;2023-04-06T08:26:57;6.00;1.00
59469;DHT22;45277;52.768;18.262;2023-04-06T08:28:29;6.10;1.00
59469;DHT22;45277;52.768;18.262;2023-04-06T08:30:00;6.10;1.00
59469;DHT22;45277;52.768;18.262;2023-04-06T08:31:35;6.00;1.00
59469;DHT22;45277;52.768;18.262;2023-04-06T08:33:07;6.20;1.00
59469;DHT22;45277;52.768;18.262;2023-04-06T08:34:39;6.30;1.00
59469;DHT22;45277;52.768;18.262;2023-04-06T08:36:11;6.60;1.00
59469;DHT22;45277;52.768;18.262;2023-04-06T08:37:44;6.70;1.00
59469;DHT22;45277;52.768;18.262;2023-04-06T08:39:16;6.80;1.00
59469;DHT22;45277;52.768;18.262;2023-04-06T08:40:47;6.90;1.00
59469;DHT22;45277;52.768;18.262;2023-04-06T08:42:21;6.70;1.00
59469;DHT22;45277;52.768;18.262;2023-04-06T08:43:57;6.50;1.00
59469;DHT22;45277;52.768;18.262;2023-04-06T08:45:29;6.60;1.00
59469;DHT22;45277;52.768;18.262;2023-04-06T08:47:02;6.50;1.00
59469;DHT22;45277;52.768;18.262;2023-04-06T08:48:38;6.60;1.00
59469;DHT22;45277;52.768;18.262;2023-04-06T08:50:10;6.70;1.00
59469;DHT22;45277;52.768;18.262;2023-04-06T08:51:43;6.50;1.00
59469;DHT22;45277;52.768;18.262;2023-04-06T08:53:14;6.90;1.00
59469;DHT22;45277;52.768;18.262;2023-04-06T08:54:47;6.70;1.00
59469;DHT22;45277;52.768;18.262;2023-04-06T08:56:19;6.40;1.00
59469;DHT22;45277;52.768;18.262;2023-04-06T08:57:52;6.60;1.00
59469;DHT22;45277;52.768;18.262;2023-04-06T08:59:26;6.70;1.00
59469;DHT22;45277;52.768;18.262;2023-04-06T09:00:59;6.80;1.00
59469;DHT22;45277;52.768;18.262;2023-04-06T09:02:30;6.90;1.00
59469;DHT22;45277;52.768;18.262;2023-04-06T09:04:03;6.80;1.00
59469;DHT22;45277;52.768;18.262;2023-04-06T09:05:40;6.90;1.00
59469;DHT22;45277;52.768;18.262;2023-04-06T09:07:12;7.20;1.00
59469;DHT22;45277;52.768;18.262;2023-04-06T09:08:43;7.00;1.00
59469;DHT22;45277;52.768;18.262;2023-04-06T09:10:16;6.80;1.00
59469;DHT22;45277;52.768;18.262;2023-04-06T09:11:49;7.00;1.00
59469;DHT22;45277;52.768;18.262;2023-04-06T09:13:21;7.00;1.00
59469;DHT22;45277;52.768;18.262;2023-04-06T09:14:53;7.00;1.00
59469;DHT22;45277;52.768;18.262;2023-04-06T09:16:25;6.70;1.00
59469;DHT22;45277;52.768;18.262;2023-04-06T09:17:57;6.50;1.00
59469;DHT22;45277;52.768;18.262;2023-04-06T09:19:29;6.40;1.00
59469;DHT22;45277;52.768;18.262;2023-04-06T09:21:04;6.30;1.00
59469;DHT22;45277;52.768;18.262;2023-04-06T09:22:37;6.50;1.00
59469;DHT22;45277;52.768;18.262;2023-04-06T09:24:09;6.30;1.00
59469;DHT22;45277;52.768;18.262;2023-04-06T09:25:41;6.60;1.00
59469;DHT22;45277;52.768;18.262;2023-04-06T09:27:13;7.00;1.00
59469;DHT22;45277;52.768;18.262;2023-04-06T09:28:52;7.40;1.00
59469;DHT22;45277;52.768;18.262;2023-04-06T09:30:23;7.60;1.00
59469;DHT22;45277;52.768;18.262;2023-04-06T09:32:06;8.00;1.00
59469;DHT22;45277;52.768;18.262;2023-04-06T09:33:40;8.10;1.00
59469;DHT22;45277;52.768;18.262;2023-04-06T09:35:12;8.30;1.00
59469;DHT22;45277;52.768;18.262;2023-04-06T09:36:43;8.30;1.00
59469;DHT22;45277;52.768;18.262;2023-04-06T09:38:15;8.30;1.00